sensor_id;sensor_type;location;lat;lon;timestamp;pressure;altitude;pressure_sealevel;temperature;humidity
66176;BME280;52977;44.816;20.538;2023-05-23T00:01:42;99462.19;;;17.63;78.64
66176;BME280;52977;44.816;20.538;2023-05-23T00:04:10;99388.31;;;17.19;79.00
66176;BME280;52977;44.816;20.538;2023-05-23T00:06:42;99435.63;;;17.85;77.99
66176;BME280;52977;44.816;20.538;2023-05-23T00:09:27;99421.59;;;17.98;76.61
66176;BME280;52977;44.816;20.538;2023-05-23T00:11:53;99460.50;;;18.23;76.95
66176;BME280;52977;44.816;20.538;2023-05-23T00:14:20;99465.50;;;18.10;77.14
66176;BME280;52977;44.816;20.538;2023-05-23T00:16:46;99474.56;;;18.10;77.13
66176;BME280;52977;44.816;20.538;2023-05-23T00:19:14;99476.25;;;18.19;76.76
66176;BME280;52977;44.816;20.538;2023-05-23T00:21:45;99467.69;;;18.35;76.41
66176;BME280;52977;44.816;20.538;2023-05-23T00:24:31;99474.16;;;18.46;75.99
66176;BME280;52977;44.816;20.538;2023-05-23T00:26:57;99427.41;;;18.30;75.88
66176;BME280;52977;44.816;20.538;2023-05-23T00:29:23;99469.84;;;18.52;75.90
66176;BME280;52977;44.816;20.538;2023-05-23T00:31:49;99459.56;;;18.53;75.91
66176;BME280;52977;44.816;20.538;2023-05-23T00:34:16;99455.69;;;18.57;75.67
66176;BME280;52977;44.816;20.538;2023-05-23T00:36:42;99456.50;;;18.65;75.44
66176;BME280;52977;44.816;20.538;2023-05-23T00:39:09;99460.09;;;18.66;75.13
66176;BME280;52977;44.816;20.538;2023-05-23T00:41:53;99463.22;;;18.64;74.39
66176;BME280;52977;44.816;20.538;2023-05-23T00:44:19;99461.56;;;18.52;74.41
66176;BME280;52977;44.816;20.538;2023-05-23T00:46:49;99460.41;;;18.57;74.41
66176;BME280;52977;44.816;20.538;2023-05-23T00:49:16;99465.56;;;18.62;74.63
66176;BME280;52977;44.816;20.538;2023-05-23T00:51:45;99455.59;;;18.50;74.89
66176;BME280;52977;44.816;20.538;2023-05-23T00:54:16;99468.50;;;18.35;75.84
66176;BME280;52977;44.816;20.538;2023-05-23T00:56:43;99467.03;;;18.45;75.98
66176;BME280;52977;44.816;20.538;2023-05-23T00:59:10;99479.69;;;18.50;75.83
66176;BME280;52977;44.816;20.538;2023-05-23T01:01:37;99442.84;;;18.35;75.57
66176;BME280;52977;44.816;20.538;2023-05-23T01:04:03;99456.75;;;18.45;76.14
66176;BME280;52977;44.816;20.538;2023-05-23T01:06:29;99466.28;;;18.52;76.19
66176;BME280;52977;44.816;20.538;2023-05-23T01:08:57;99428.13;;;18.23;76.48
66176;BME280;52977;44.816;20.538;2023-05-23T01:11:34;99411.88;;;18.15;76.57
66176;BME280;52977;44.816;20.538;2023-05-23T01:14:17;99425.03;;;18.28;76.78
66176;BME280;52977;44.816;20.538;2023-05-23T01:17:10;99461.22;;;18.57;76.67
66176;BME280;52977;44.816;20.538;2023-05-23T01:22:25;99458.19;;;18.28;77.73
66176;BME280;52977;44.816;20.538;2023-05-23T01:25:10;99450.16;;;18.13;78.43
66176;BME280;52977;44.816;20.538;2023-05-23T01:27:44;99463.31;;;18.30;78.41
66176;BME280;52977;44.816;20.538;2023-05-23T01:30:12;99455.28;;;18.14;77.74
66176;BME280;52977;44.816;20.538;2023-05-23T01:32:40;99429.09;;;18.01;78.04
66176;BME280;52977;44.816;20.538;2023-05-23T01:35:09;99475.91;;;18.24;77.99
66176;BME280;52977;44.816;20.538;2023-05-23T01:37:35;99483.59;;;17.73;81.66
66176;BME280;52977;44.816;20.538;2023-05-23T01:40:01;99476.63;;;17.22;89.16
66176;BME280;52977;44.816;20.538;2023-05-23T01:42:27;99492.53;;;17.06;94.09
66176;BME280;52977;44.816;20.538;2023-05-23T01:44:53;99459.47;;;16.83;98.25
66176;BME280;52977;44.816;20.538;2023-05-23T01:47:19;99482.84;;;17.16;96.59
66176;BME280;52977;44.816;20.538;2023-05-23T01:49:46;99491.66;;;17.25;95.77
66176;BME280;52977;44.816;20.538;2023-05-23T01:52:12;99480.25;;;17.00;96.77
66176;BME280;52977;44.816;20.538;2023-05-23T01:54:40;99477.47;;;17.27;94.99
66176;BME280;52977;44.816;20.538;2023-05-23T01:57:09;99467.16;;;17.50;92.36
66176;BME280;52977;44.816;20.538;2023-05-23T01:59:36;99380.19;;;16.99;90.34
66176;BME280;52977;44.816;20.538;2023-05-23T02:02:05;99480.34;;;17.64;89.50
66176;BME280;52977;44.816;20.538;2023-05-23T02:04:30;99491.16;;;17.80;87.69
66176;BME280;52977;44.816;20.538;2023-05-23T02:06:57;99473.59;;;17.62;87.81
66176;BME280;52977;44.816;20.538;2023-05-23T02:09:22;99465.66;;;17.56;88.00
66176;BME280;52977;44.816;20.538;2023-05-23T02:11:48;99462.94;;;17.60;87.83
66176;BME280;52977;44.816;20.538;2023-05-23T02:14:14;99475.34;;;17.77;87.45
66176;BME280;52977;44.816;20.538;2023-05-23T02:16:40;99442.47;;;17.65;87.23
66176;BME280;52977;44.816;20.538;2023-05-23T02:19:06;99431.22;;;17.47;86.92
66176;BME280;52977;44.816;20.538;2023-05-23T02:21:32;99459.81;;;17.62;87.83
66176;BME280;52977;44.816;20.538;2023-05-23T02:23:57;99476.88;;;17.71;87.79
66176;BME280;52977;44.816;20.538;2023-05-23T02:26:23;99448.63;;;17.20;87.34
66176;BME280;52977;44.816;20.538;2023-05-23T02:28:49;99438.97;;;16.80;90.07
66176;BME280;52977;44.816;20.538;2023-05-23T02:31:15;99457.72;;;16.94;90.76
66176;BME280;52977;44.816;20.538;2023-05-23T02:33:41;99467.94;;;16.94;90.54
66176;BME280;52977;44.816;20.538;2023-05-23T02:36:07;99385.44;;;16.54;91.13
66176;BME280;52977;44.816;20.538;2023-05-23T02:38:32;99490.53;;;17.30;90.66
66176;BME280;52977;44.816;20.538;2023-05-23T02:40:58;99455.81;;;16.98;91.55
66176;BME280;52977;44.816;20.538;2023-05-23T02:43:25;99498.69;;;17.22;91.39
66176;BME280;52977;44.816;20.538;2023-05-23T02:45:51;99488.19;;;17.32;91.56
66176;BME280;52977;44.816;20.538;2023-05-23T02:48:17;99370.69;;;16.70;90.22
66176;BME280;52977;44.816;20.538;2023-05-23T02:50:44;99470.28;;;17.49;89.27
66176;BME280;52977;44.816;20.538;2023-05-23T02:53:09;99474.50;;;17.39;89.26
66176;BME280;52977;44.816;20.538;2023-05-23T02:55:35;99475.34;;;17.43;89.19
66176;BME280;52977;44.816;20.538;2023-05-23T02:58:01;99469.22;;;17.57;88.35
66176;BME280;52977;44.816;20.538;2023-05-23T03:00:30;99470.06;;;17.61;87.82
66176;BME280;52977;44.816;20.538;2023-05-23T03:03:21;99471.69;;;17.66;87.26
66176;BME280;52977;44.816;20.538;2023-05-23T03:05:47;99470.91;;;17.65;86.92
66176;BME280;52977;44.816;20.538;2023-05-23T03:08:12;99435.19;;;17.46;86.80
66176;BME280;52977;44.816;20.538;2023-05-23T03:10:38;99465.00;;;17.67;86.76
66176;BME280;52977;44.816;20.538;2023-05-23T03:13:04;99344.06;;;16.81;86.61
66176;BME280;52977;44.816;20.538;2023-05-23T03:15:30;99470.06;;;17.61;87.00
66176;BME280;52977;44.816;20.538;2023-05-23T03:17:56;99427.00;;;17.22;87.75
66176;BME280;52977;44.816;20.538;2023-05-23T03:20:21;99462.78;;;17.49;87.76
66176;BME280;52977;44.816;20.538;2023-05-23T03:22:47;99399.31;;;17.15;87.41
66176;BME280;52977;44.816;20.538;2023-05-23T03:25:14;99442.09;;;17.32;87.60
66176;BME280;52977;44.816;20.538;2023-05-23T03:27:40;99460.94;;;17.27;89.80
66176;BME280;52977;44.816;20.538;2023-05-23T03:30:07;99453.06;;;17.29;89.49
66176;BME280;52977;44.816;20.538;2023-05-23T03:32:33;99392.75;;;16.97;87.80
66176;BME280;52977;44.816;20.538;2023-05-23T03:34:59;99421.56;;;17.30;87.47
66176;BME280;52977;44.816;20.538;2023-05-23T03:37:25;99459.75;;;17.58;87.10
66176;BME280;52977;44.816;20.538;2023-05-23T03:39:50;99457.38;;;17.56;87.25
66176;BME280;52977;44.816;20.538;2023-05-23T03:42:17;99473.28;;;17.67;87.60
66176;BME280;52977;44.816;20.538;2023-05-23T03:44:43;99433.66;;;17.52;87.20
66176;BME280;52977;44.816;20.538;2023-05-23T03:47:10;99466.25;;;17.73;86.52
66176;BME280;52977;44.816;20.538;2023-05-23T03:49:38;99442.84;;;17.29;88.66
66176;BME280;52977;44.816;20.538;2023-05-23T03:52:04;99470.38;;;17.56;88.70
66176;BME280;52977;44.816;20.538;2023-05-23T03:54:30;99427.47;;;17.28;89.00
66176;BME280;52977;44.816;20.538;2023-05-23T03:56:56;99470.19;;;17.41;90.05
66176;BME280;52977;44.816;20.538;2023-05-23T03:59:22;99460.28;;;17.37;89.30
66176;BME280;52977;44.816;20.538;2023-05-23T04:01:47;99472.84;;;17.34;91.20
66176;BME280;52977;44.816;20.538;2023-05-23T04:04:13;99414.56;;;17.05;91.26
66176;BME280;52977;44.816;20.538;2023-05-23T04:06:39;99463.38;;;17.32;92.03
66176;BME280;52977;44.816;20.538;2023-05-23T04:09:04;99474.59;;;17.46;91.88
66176;BME280;52977;44.816;20.538;2023-05-23T04:11:35;99456.44;;;17.45;91.19
66176;BME280;52977;44.816;20.538;2023-05-23T04:14:01;99429.94;;;17.37;90.25
66176;BME280;52977;44.816;20.538;2023-05-23T04:16:27;99454.97;;;17.55;89.59
66176;BME280;52977;44.816;20.538;2023-05-23T04:18:59;99444.56;;;17.41;90.37
66176;BME280;52977;44.816;20.538;2023-05-23T04:21:25;99465.66;;;17.56;90.75
66176;BME280;52977;44.816;20.538;2023-05-23T04:24:01;99467.31;;;17.65;89.79
66176;BME280;52977;44.816;20.538;2023-05-23T04:26:28;99434.75;;;17.43;89.91
66176;BME280;52977;44.816;20.538;2023-05-23T04:28:54;99475.94;;;17.59;90.35
66176;BME280;52977;44.816;20.538;2023-05-23T04:31:21;99453.91;;;17.33;91.61
66176;BME280;52977;44.816;20.538;2023-05-23T04:33:50;99469.38;;;17.41;91.84
66176;BME280;52977;44.816;20.538;2023-05-23T04:36:18;99458.03;;;17.16;92.42
66176;BME280;52977;44.816;20.538;2023-05-23T04:38:49;99486.47;;;17.50;92.33
66176;BME280;52977;44.816;20.538;2023-05-23T04:41:15;99488.25;;;17.66;91.07
66176;BME280;52977;44.816;20.538;2023-05-23T04:44:00;99481.94;;;17.35;92.96
66176;BME280;52977;44.816;20.538;2023-05-23T04:46:30;99341.59;;;15.96;99.14
66176;BME280;52977;44.816;20.538;2023-05-23T04:49:31;99490.91;;;16.78;100.00
66176;BME280;52977;44.816;20.538;2023-05-23T04:51:59;99496.03;;;16.80;100.00
66176;BME280;52977;44.816;20.538;2023-05-23T04:54:27;99466.19;;;16.58;100.00
66176;BME280;52977;44.816;20.538;2023-05-23T04:56:54;99501.50;;;16.76;100.00
66176;BME280;52977;44.816;20.538;2023-05-23T04:59:21;99483.50;;;16.82;99.53
66176;BME280;52977;44.816;20.538;2023-05-23T05:01:46;99426.66;;;16.74;97.67
66176;BME280;52977;44.816;20.538;2023-05-23T05:04:12;99519.41;;;17.36;96.49
66176;BME280;52977;44.816;20.538;2023-05-23T05:06:39;99512.38;;;17.15;98.30
66176;BME280;52977;44.816;20.538;2023-05-23T05:09:07;99508.28;;;16.82;99.82
66176;BME280;52977;44.816;20.538;2023-05-23T05:11:33;99478.06;;;16.63;100.00
66176;BME280;52977;44.816;20.538;2023-05-23T05:13:58;99469.34;;;16.84;99.65
66176;BME280;52977;44.816;20.538;2023-05-23T05:16:24;99494.94;;;17.07;99.67
66176;BME280;52977;44.816;20.538;2023-05-23T05:18:50;99513.13;;;17.12;100.00
66176;BME280;52977;44.816;20.538;2023-05-23T05:21:17;99493.19;;;16.96;100.00
66176;BME280;52977;44.816;20.538;2023-05-23T05:23:43;99513.47;;;17.11;100.00
66176;BME280;52977;44.816;20.538;2023-05-23T05:26:09;99463.44;;;16.85;99.25
66176;BME280;52977;44.816;20.538;2023-05-23T05:28:34;99494.81;;;17.27;97.98
66176;BME280;52977;44.816;20.538;2023-05-23T05:31:01;99452.97;;;17.21;96.63
66176;BME280;52977;44.816;20.538;2023-05-23T05:33:30;99498.13;;;17.67;95.62
66176;BME280;52977;44.816;20.538;2023-05-23T05:36:06;99391.88;;;16.89;95.39
66176;BME280;52977;44.816;20.538;2023-05-23T05:38:33;99510.22;;;17.58;95.44
66176;BME280;52977;44.816;20.538;2023-05-23T05:40:59;99521.66;;;17.57;96.62
66176;BME280;52977;44.816;20.538;2023-05-23T05:43:31;99506.25;;;17.56;98.22
66176;BME280;52977;44.816;20.538;2023-05-23T05:45:57;99511.81;;;17.59;97.84
66176;BME280;52977;44.816;20.538;2023-05-23T05:48:23;99519.53;;;17.77;97.06
66176;BME280;52977;44.816;20.538;2023-05-23T05:50:51;99522.91;;;17.93;96.25
66176;BME280;52977;44.816;20.538;2023-05-23T05:53:18;99507.13;;;17.94;95.79
66176;BME280;52977;44.816;20.538;2023-05-23T05:55:44;99477.38;;;17.50;100.00
66176;BME280;52977;44.816;20.538;2023-05-23T05:58:10;99511.19;;;17.73;100.00
66176;BME280;52977;44.816;20.538;2023-05-23T06:00:54;99473.13;;;17.56;100.00
66176;BME280;52977;44.816;20.538;2023-05-23T06:03:21;99511.44;;;17.91;99.87
66176;BME280;52977;44.816;20.538;2023-05-23T06:05:53;99515.84;;;17.96;100.00
66176;BME280;52977;44.816;20.538;2023-05-23T06:08:20;99517.47;;;18.01;100.00
66176;BME280;52977;44.816;20.538;2023-05-23T06:10:47;99514.03;;;18.11;99.29
66176;BME280;52977;44.816;20.538;2023-05-23T06:13:13;99518.72;;;18.07;100.00
66176;BME280;52977;44.816;20.538;2023-05-23T06:15:42;99515.25;;;18.14;98.21
66176;BME280;52977;44.816;20.538;2023-05-23T06:18:27;99439.69;;;17.61;97.60
66176;BME280;52977;44.816;20.538;2023-05-23T06:20:53;99506.56;;;18.15;96.95
66176;BME280;52977;44.816;20.538;2023-05-23T06:23:20;99442.03;;;17.93;95.75
66176;BME280;52977;44.816;20.538;2023-05-23T06:25:47;99510.75;;;18.36;95.11
66176;BME280;52977;44.816;20.538;2023-05-23T06:28:13;99513.94;;;18.38;96.31
66176;BME280;52977;44.816;20.538;2023-05-23T06:30:39;99498.28;;;18.12;97.42
66176;BME280;52977;44.816;20.538;2023-05-23T06:33:06;99523.50;;;18.10;98.53
66176;BME280;52977;44.816;20.538;2023-05-23T06:35:33;99491.78;;;17.97;98.83
66176;BME280;52977;44.816;20.538;2023-05-23T06:37:59;99513.00;;;18.26;97.56
66176;BME280;52977;44.816;20.538;2023-05-23T06:40:26;99480.16;;;18.14;97.01
66176;BME280;52977;44.816;20.538;2023-05-23T06:42:52;99483.44;;;18.31;97.56
66176;BME280;52977;44.816;20.538;2023-05-23T06:45:33;99491.06;;;18.44;96.37
66176;BME280;52977;44.816;20.538;2023-05-23T06:48:00;99508.25;;;18.65;95.14
66176;BME280;52977;44.816;20.538;2023-05-23T06:50:26;99504.28;;;18.62;94.51
66176;BME280;52977;44.816;20.538;2023-05-23T06:52:53;99446.41;;;18.35;94.35
66176;BME280;52977;44.816;20.538;2023-05-23T06:55:19;99475.41;;;18.56;93.72
66176;BME280;52977;44.816;20.538;2023-05-23T06:57:48;99484.59;;;18.71;94.59
66176;BME280;52977;44.816;20.538;2023-05-23T07:00:17;99501.63;;;18.76;95.27
66176;BME280;52977;44.816;20.538;2023-05-23T07:03:05;99513.16;;;18.86;96.88
66176;BME280;52977;44.816;20.538;2023-05-23T07:05:32;99507.59;;;18.78;97.57
66176;BME280;52977;44.816;20.538;2023-05-23T07:07:58;99518.34;;;18.87;97.81
66176;BME280;52977;44.816;20.538;2023-05-23T07:10:25;99505.19;;;18.77;97.60
66176;BME280;52977;44.816;20.538;2023-05-23T07:12:54;99505.19;;;18.77;98.87
66176;BME280;52977;44.816;20.538;2023-05-23T07:15:21;99507.97;;;18.81;97.81
66176;BME280;52977;44.816;20.538;2023-05-23T07:17:56;99448.78;;;18.37;97.22
66176;BME280;52977;44.816;20.538;2023-05-23T07:20:22;99503.25;;;18.81;99.09
66176;BME280;52977;44.816;20.538;2023-05-23T07:22:51;99502.97;;;18.90;97.10
66176;BME280;52977;44.816;20.538;2023-05-23T07:25:18;99508.16;;;18.99;96.20
66176;BME280;52977;44.816;20.538;2023-05-23T07:27:43;99504.59;;;19.02;96.76
66176;BME280;52977;44.816;20.538;2023-05-23T07:30:09;99464.13;;;18.79;95.61
66176;BME280;52977;44.816;20.538;2023-05-23T07:32:36;99462.56;;;18.82;96.55
66176;BME280;52977;44.816;20.538;2023-05-23T07:35:02;99467.44;;;18.95;96.39
66176;BME280;52977;44.816;20.538;2023-05-23T07:37:28;99498.50;;;19.30;94.79
66176;BME280;52977;44.816;20.538;2023-05-23T07:39:54;99472.69;;;19.15;94.43
66176;BME280;52977;44.816;20.538;2023-05-23T07:42:20;99475.84;;;19.17;94.93
66176;BME280;52977;44.816;20.538;2023-05-23T07:44:45;99502.47;;;19.36;94.13
66176;BME280;52977;44.816;20.538;2023-05-23T07:47:11;99479.19;;;19.44;93.20
66176;BME280;52977;44.816;20.538;2023-05-23T07:49:36;99451.41;;;19.23;92.63
66176;BME280;52977;44.816;20.538;2023-05-23T07:52:03;99465.72;;;19.36;92.37
66176;BME280;52977;44.816;20.538;2023-05-23T07:54:31;99490.31;;;19.59;94.54
66176;BME280;52977;44.816;20.538;2023-05-23T07:56:59;99494.31;;;19.69;92.31
66176;BME280;52977;44.816;20.538;2023-05-23T07:59:25;99497.50;;;19.74;93.12
66176;BME280;52977;44.816;20.538;2023-05-23T08:01:53;99491.59;;;19.76;91.57
66176;BME280;52977;44.816;20.538;2023-05-23T08:04:21;99455.94;;;19.60;90.01
66176;BME280;52977;44.816;20.538;2023-05-23T08:06:52;99496.41;;;19.86;90.62
66176;BME280;52977;44.816;20.538;2023-05-23T08:09:22;99500.38;;;19.89;90.33
66176;BME280;52977;44.816;20.538;2023-05-23T08:11:51;99486.16;;;19.97;89.53
66176;BME280;52977;44.816;20.538;2023-05-23T08:14:19;99482.19;;;19.95;87.83
66176;BME280;52977;44.816;20.538;2023-05-23T08:17:08;99481.81;;;20.07;87.63
66176;BME280;52977;44.816;20.538;2023-05-23T08:19:35;99486.97;;;20.16;87.65
66176;BME280;52977;44.816;20.538;2023-05-23T08:22:01;99457.28;;;19.98;88.33
66176;BME280;52977;44.816;20.538;2023-05-23T08:24:28;99482.22;;;20.13;86.87
66176;BME280;52977;44.816;20.538;2023-05-23T08:26:55;99448.16;;;20.02;86.54
66176;BME280;52977;44.816;20.538;2023-05-23T08:29:22;99473.16;;;20.20;86.52
66176;BME280;52977;44.816;20.538;2023-05-23T08:31:48;99476.31;;;20.32;82.17
66176;BME280;52977;44.816;20.538;2023-05-23T08:34:14;99455.72;;;20.15;81.25
66176;BME280;52977;44.816;20.538;2023-05-23T08:36:41;99488.22;;;20.37;79.13
66176;BME280;52977;44.816;20.538;2023-05-23T08:39:12;99495.34;;;20.45;78.72
66176;BME280;52977;44.816;20.538;2023-05-23T08:41:46;99470.78;;;20.32;76.90
66176;BME280;52977;44.816;20.538;2023-05-23T08:44:12;99477.53;;;20.46;76.62
66176;BME280;52977;44.816;20.538;2023-05-23T08:46:45;99501.72;;;20.60;76.42
66176;BME280;52977;44.816;20.538;2023-05-23T08:49:21;99486.66;;;20.57;76.74
66176;BME280;52977;44.816;20.538;2023-05-23T08:51:50;99433.97;;;20.36;76.64
66176;BME280;52977;44.816;20.538;2023-05-23T08:54:20;99471.59;;;20.62;77.95
66176;BME280;52977;44.816;20.538;2023-05-23T08:56:47;99500.13;;;20.91;75.42
66176;BME280;52977;44.816;20.538;2023-05-23T08:59:14;99489.84;;;20.95;75.22
66176;BME280;52977;44.816;20.538;2023-05-23T09:01:42;99449.84;;;20.71;70.45
66176;BME280;52977;44.816;20.538;2023-05-23T09:04:11;99490.22;;;21.01;61.86
66176;BME280;52977;44.816;20.538;2023-05-23T09:06:59;99485.47;;;21.05;64.42
66176;BME280;52977;44.816;20.538;2023-05-23T09:09:28;99485.47;;;21.05;68.18
66176;BME280;52977;44.816;20.538;2023-05-23T09:11:54;99488.63;;;21.14;68.97
66176;BME280;52977;44.816;20.538;2023-05-23T09:14:22;99486.22;;;21.24;69.23
66176;BME280;52977;44.816;20.538;2023-05-23T09:16:59;99483.84;;;21.26;67.68
66176;BME280;52977;44.816;20.538;2023-05-23T09:19:26;99483.06;;;21.25;65.05
66176;BME280;52977;44.816;20.538;2023-05-23T09:22:01;99486.97;;;21.39;67.63
66176;BME280;52977;44.816;20.538;2023-05-23T09:24:34;99482.59;;;21.38;65.94
66176;BME280;52977;44.816;20.538;2023-05-23T09:27:04;99490.13;;;21.48;70.49
66176;BME280;52977;44.816;20.538;2023-05-23T09:29:36;99470.31;;;21.39;71.89
66176;BME280;52977;44.816;20.538;2023-05-23T09:32:13;99416.91;;;21.06;71.82
66176;BME280;52977;44.816;20.538;2023-05-23T09:34:58;99478.25;;;21.55;73.85
66176;BME280;52977;44.816;20.538;2023-05-23T09:39:57;99469.47;;;21.63;74.56
66176;BME280;52977;44.816;20.538;2023-05-23T09:42:24;99443.34;;;21.46;74.24
66176;BME280;52977;44.816;20.538;2023-05-23T09:44:50;99486.84;;;21.82;74.21
66176;BME280;52977;44.816;20.538;2023-05-23T09:47:18;99489.22;;;21.83;73.91
66176;BME280;52977;44.816;20.538;2023-05-23T09:49:45;99468.22;;;21.79;72.12
66176;BME280;52977;44.816;20.538;2023-05-23T09:52:13;99448.81;;;21.68;69.60
66176;BME280;52977;44.816;20.538;2023-05-23T09:54:39;99445.22;;;21.71;69.81
66176;BME280;52977;44.816;20.538;2023-05-23T09:57:09;99471.31;;;21.95;67.56
66176;BME280;52977;44.816;20.538;2023-05-23T09:59:40;99435.69;;;21.76;67.36
66176;BME280;52977;44.816;20.538;2023-05-23T10:02:10;99452.31;;;21.87;67.11
66176;BME280;52977;44.816;20.538;2023-05-23T10:04:40;99470.44;;;22.06;67.18
66176;BME280;52977;44.816;20.538;2023-05-23T10:07:13;99464.84;;;22.13;67.76
66176;BME280;52977;44.816;20.538;2023-05-23T10:09:49;99415.44;;;21.79;66.56
66176;BME280;52977;44.816;20.538;2023-05-23T10:15:08;99463.50;;;22.39;63.30
66176;BME280;52977;44.816;20.538;2023-05-23T10:18:15;99457.53;;;22.41;65.13
66176;BME280;52977;44.816;20.538;2023-05-23T10:20:47;99455.50;;;22.45;61.76
66176;BME280;52977;44.816;20.538;2023-05-23T10:23:14;99454.34;;;22.42;61.83
66176;BME280;52977;44.816;20.538;2023-05-23T10:25:42;99454.25;;;22.53;59.74
66176;BME280;52977;44.816;20.538;2023-05-23T10:28:09;99352.66;;;21.89;61.17
66176;BME280;52977;44.816;20.538;2023-05-23T10:30:36;99450.56;;;22.67;61.18
66176;BME280;52977;44.816;20.538;2023-05-23T10:33:04;99408.72;;;22.40;60.06
66176;BME280;52977;44.816;20.538;2023-05-23T10:35:39;99449.72;;;22.74;58.75
66176;BME280;52977;44.816;20.538;2023-05-23T10:38:35;99401.84;;;22.48;54.68
66176;BME280;52977;44.816;20.538;2023-05-23T10:46:50;99410.16;;;22.55;57.73
66176;BME280;52977;44.816;20.538;2023-05-23T10:49:17;99400.66;;;22.49;58.24
66176;BME280;52977;44.816;20.538;2023-05-23T10:51:48;99386.41;;;22.43;57.67
66176;BME280;52977;44.816;20.538;2023-05-23T10:54:17;99416.66;;;22.83;58.26
66176;BME280;52977;44.816;20.538;2023-05-23T10:56:44;99424.94;;;22.90;56.30
66176;BME280;52977;44.816;20.538;2023-05-23T10:59:20;99406.41;;;22.73;57.13
66176;BME280;52977;44.816;20.538;2023-05-23T11:01:50;99391.81;;;22.61;56.25
66176;BME280;52977;44.816;20.538;2023-05-23T11:04:27;99413.81;;;22.86;55.21
66176;BME280;52977;44.816;20.538;2023-05-23T11:06:55;99424.94;;;22.90;55.09
66176;BME280;52977;44.816;20.538;2023-05-23T11:09:22;99383.81;;;22.67;55.62
66176;BME280;52977;44.816;20.538;2023-05-23T11:12:02;99382.97;;;22.70;55.56
66176;BME280;52977;44.816;20.538;2023-05-23T11:17:00;99375.47;;;22.67;57.11
66176;BME280;52977;44.816;20.538;2023-05-23T11:19:39;99342.34;;;22.38;57.67
66176;BME280;52977;44.816;20.538;2023-05-23T11:22:21;99396.44;;;22.79;55.38
66176;BME280;52977;44.816;20.538;2023-05-23T11:24:52;99409.75;;;22.95;54.70
66176;BME280;52977;44.816;20.538;2023-05-23T11:27:32;99407.84;;;22.88;55.55
66176;BME280;52977;44.816;20.538;2023-05-23T11:30:20;99404.44;;;22.73;56.23
66176;BME280;52977;44.816;20.538;2023-05-23T11:32:50;99323.41;;;22.22;57.03
66176;BME280;52977;44.816;20.538;2023-05-23T11:35:17;99373.06;;;22.69;56.40
66176;BME280;52977;44.816;20.538;2023-05-23T11:37:44;99393.41;;;23.00;53.25
66176;BME280;52977;44.816;20.538;2023-05-23T11:42:56;99347.94;;;23.11;53.81
66176;BME280;52977;44.816;20.538;2023-05-23T11:45:23;99397.94;;;23.56;52.35
66176;BME280;52977;44.816;20.538;2023-05-23T11:47:50;99398.59;;;23.67;52.20
66176;BME280;52977;44.816;20.538;2023-05-23T11:50:17;99380.38;;;23.59;51.34
66176;BME280;52977;44.816;20.538;2023-05-23T11:52:46;99370.72;;;23.67;52.97
66176;BME280;52977;44.816;20.538;2023-05-23T11:55:18;99371.75;;;23.81;52.43
66176;BME280;52977;44.816;20.538;2023-05-23T11:57:45;99381.41;;;24.00;51.88
66176;BME280;52977;44.816;20.538;2023-05-23T12:00:11;99352.97;;;23.85;52.97
66176;BME280;52977;44.816;20.538;2023-05-23T12:02:42;99368.09;;;24.11;52.52
66176;BME280;52977;44.816;20.538;2023-05-23T12:05:10;99383.88;;;24.21;51.13
66176;BME280;52977;44.816;20.538;2023-05-23T12:07:45;99328.53;;;23.96;51.23
66176;BME280;52977;44.816;20.538;2023-05-23T12:10:30;99376.06;;;24.36;50.28
66176;BME280;52977;44.816;20.538;2023-05-23T12:12:57;99372.31;;;24.47;51.38
66176;BME280;52977;44.816;20.538;2023-05-23T12:15:26;99343.50;;;24.30;51.49
66176;BME280;52977;44.816;20.538;2023-05-23T12:17:54;99379.34;;;24.55;51.46
66176;BME280;52977;44.816;20.538;2023-05-23T12:20:21;99349.69;;;24.41;49.85
66176;BME280;52977;44.816;20.538;2023-05-23T12:22:47;99367.59;;;24.67;49.33
66176;BME280;52977;44.816;20.538;2023-05-23T12:25:14;99364.41;;;24.65;49.83
66176;BME280;52977;44.816;20.538;2023-05-23T12:27:40;99361.63;;;24.65;48.97
66176;BME280;52977;44.816;20.538;2023-05-23T12:30:15;99355.13;;;24.72;49.10
66176;BME280;52977;44.816;20.538;2023-05-23T12:32:43;99347.53;;;24.72;49.54
66176;BME280;52977;44.816;20.538;2023-05-23T12:35:13;99353.69;;;24.84;50.82
66176;BME280;52977;44.816;20.538;2023-05-23T12:37:40;99355.16;;;24.92;51.39
66176;BME280;52977;44.816;20.538;2023-05-23T12:40:17;99348.19;;;25.00;50.14
66176;BME280;52977;44.816;20.538;2023-05-23T12:42:56;99347.50;;;24.96;49.65
66176;BME280;52977;44.816;20.538;2023-05-23T12:45:33;99345.06;;;24.98;49.63
66176;BME280;52977;44.816;20.538;2023-05-23T12:47:59;99345.94;;;24.95;50.04
66176;BME280;52977;44.816;20.538;2023-05-23T12:50:27;99320.31;;;24.80;51.17
66176;BME280;52977;44.816;20.538;2023-05-23T12:52:53;99329.47;;;25.01;52.48
66176;BME280;52977;44.816;20.538;2023-05-23T12:55:19;99304.78;;;24.99;52.41
66176;BME280;52977;44.816;20.538;2023-05-23T12:57:46;99324.72;;;25.18;51.73
66176;BME280;52977;44.816;20.538;2023-05-23T13:00:13;99284.94;;;24.94;52.31
66176;BME280;52977;44.816;20.538;2023-05-23T13:02:41;99280.44;;;25.00;52.49
66176;BME280;52977;44.816;20.538;2023-05-23T13:05:07;99318.13;;;25.28;51.29
66176;BME280;52977;44.816;20.538;2023-05-23T13:07:34;99319.03;;;25.21;50.58
66176;BME280;52977;44.816;20.538;2023-05-23T13:10:00;99307.97;;;25.18;50.56
66176;BME280;52977;44.816;20.538;2023-05-23T13:12:27;99259.13;;;24.89;50.27
66176;BME280;52977;44.816;20.538;2023-05-23T13:14:53;99321.34;;;25.27;49.38
66176;BME280;52977;44.816;20.538;2023-05-23T13:17:19;99315.03;;;25.22;49.42
66176;BME280;52977;44.816;20.538;2023-05-23T13:19:46;99316.97;;;25.25;49.48